Time;durP1;ratioP1;P1;durP2;ratioP2;P2;SDS_P1;SDS_P2;PMS_P1;PMS_P2;Temp;Humidity;BMP_temperature;BMP_pressure;BME280_temperature;BME280_humidity;BME280_pressure;Samples;Min_cycle;Max_cycle;Signal;HPM_P1;HPM_P2
2023/04/23 00:02:14;;;;;;;15.60;11.85;;;14.10;81.30;;;;;;5018355;28;20080;-85
2023/04/23 00:04:49;;;;;;;15.35;12.02;;;14.10;81.30;;;;;;5018345;28;20089;-84
2023/04/23 00:07:15;;;;;;;15.10;12.10;;;14.10;81.30;;;;;;5018179;28;20026;-85
2023/04/23 00:09:43;;;;;;;15.23;11.95;;;14.10;81.30;;;;;;5018036;28;20044;-85
2023/04/23 00:12:09;;;;;;;14.50;12.00;;;14.00;81.30;;;;;;5015971;28;20497;-84
2023/04/23 00:14:35;;;;;;;14.85;11.60;;;14.10;81.40;;;;;;5014829;28;20089;-83
2023/04/23 00:17:00;;;;;;;14.20;11.80;;;14.10;81.40;;;;;;5014793;28;20490;-84
2023/04/23 00:19:26;;;;;;;14.60;11.55;;;14.00;81.20;;;;;;5016038;28;20585;-85
2023/04/23 00:21:51;;;;;;;15.80;11.88;;;14.00;81.30;;;;;;5018494;28;20841;-84
2023/04/23 00:24:17;;;;;;;16.27;12.23;;;14.10;81.30;;;;;;5016867;28;20100;-84
2023/04/23 00:26:42;;;;;;;13.77;11.40;;;14.10;81.30;;;;;;5015379;28;20076;-83
2023/04/23 00:29:08;;;;;;;15.07;11.95;;;14.00;81.30;;;;;;5015377;28;20029;-84
2023/04/23 00:31:33;;;;;;;12.95;11.05;;;14.10;81.30;;;;;;5016248;28;20014;-83
2023/04/23 00:33:59;;;;;;;14.25;11.52;;;14.10;81.30;;;;;;5016087;28;20069;-84
2023/04/23 00:36:25;;;;;;;14.18;11.50;;;14.00;81.20;;;;;;5015914;28;20474;-85
2023/04/23 00:38:50;;;;;;;14.38;11.80;;;14.00;81.20;;;;;;5014796;28;20037;-82
2023/04/23 00:41:16;;;;;;;15.10;11.60;;;14.10;81.30;;;;;;5017260;28;20026;-83
2023/04/23 00:43:43;;;;;;;14.73;11.10;;;14.00;81.30;;;;;;5017511;28;20029;-83
2023/04/23 00:46:09;;;;;;;14.77;11.50;;;14.00;81.30;;;;;;5015964;28;20378;-84
2023/04/23 00:48:35;;;;;;;14.00;11.10;;;14.00;81.30;;;;;;5015236;28;20030;-83
2023/04/23 00:51:05;;;;;;;14.15;11.65;;;14.00;81.30;;;;;;5015181;28;20033;-83
2023/04/23 00:53:32;;;;;;;14.75;11.63;;;14.10;81.40;;;;;;5014386;28;20049;-84
2023/04/23 00:55:58;;;;;;;14.10;11.50;;;14.10;81.40;;;;;;5013014;28;20096;-82
2023/04/23 00:58:24;;;;;;;14.57;11.38;;;14.00;81.30;;;;;;5014910;28;20386;-84
2023/04/23 01:00:51;;;;;;;13.43;10.95;;;14.00;81.30;;;;;;5014764;28;20022;-84
2023/04/23 01:03:17;;;;;;;13.68;10.98;;;14.00;81.30;;;;;;5015804;28;20029;-83
2023/04/23 01:05:43;;;;;;;14.35;11.25;;;14.10;81.40;;;;;;5015009;28;20025;-83
2023/04/23 01:08:13;;;;;;;14.25;10.82;;;14.00;81.30;;;;;;5013789;28;20109;-83
2023/04/23 01:10:40;;;;;;;15.10;11.37;;;14.10;81.40;;;;;;5013813;28;20018;-84
2023/04/23 01:13:05;;;;;;;14.63;11.63;;;14.10;81.40;;;;;;5013787;28;20348;-84
2023/04/23 01:15:31;;;;;;;13.23;10.70;;;14.10;81.40;;;;;;5015896;28;20117;-83
2023/04/23 01:17:57;;;;;;;14.57;11.05;;;14.00;81.30;;;;;;5013812;28;20360;-84
2023/04/23 01:20:22;;;;;;;14.20;11.23;;;14.00;81.30;;;;;;5013468;28;20080;-83
2023/04/23 01:22:48;;;;;;;13.90;10.80;;;14.10;81.40;;;;;;5013704;28;20022;-83
2023/04/23 01:25:14;;;;;;;13.48;10.77;;;14.10;81.40;;;;;;5013535;28;20100;-84
2023/04/23 01:27:40;;;;;;;14.75;11.52;;;14.00;81.30;;;;;;5013266;28;20022;-83
2023/04/23 01:30:07;;;;;;;14.13;11.25;;;14.00;81.30;;;;;;5013439;28;20049;-82
2023/04/23 01:32:33;;;;;;;14.00;11.15;;;14.10;81.40;;;;;;5013291;28;20033;-86
2023/04/23 01:35:00;;;;;;;13.65;11.00;;;14.10;81.40;;;;;;5014122;28;20033;-84
2023/04/23 01:37:27;;;;;;;13.27;10.60;;;14.00;81.30;;;;;;5022817;28;20018;-83
2023/04/23 01:39:53;;;;;;;13.65;11.05;;;14.10;81.40;;;;;;5023192;28;20025;-84
2023/04/23 01:42:19;;;;;;;12.63;10.48;;;14.10;81.40;;;;;;5021314;28;20018;-84
2023/04/23 01:44:44;;;;;;;13.48;10.38;;;14.10;81.40;;;;;;5020816;28;20049;-84
2023/04/23 01:47:10;;;;;;;14.02;10.77;;;14.00;81.30;;;;;;5004326;28;20030;-82
2023/04/23 01:49:36;;;;;;;13.40;10.70;;;14.10;81.40;;;;;;5020808;28;20030;-86
2023/04/23 01:52:02;;;;;;;13.82;10.70;;;14.00;81.30;;;;;;5020807;28;20026;-84
2023/04/23 01:54:28;;;;;;;12.90;10.65;;;14.00;81.30;;;;;;5019838;28;20022;-83
2023/04/23 01:56:54;;;;;;;12.88;10.38;;;14.00;81.30;;;;;;5019409;28;20029;-84
2023/04/23 01:59:21;;;;;;;13.63;10.70;;;14.10;81.40;;;;;;5018840;28;20041;-86
2023/04/23 02:01:47;;;;;;;12.73;10.32;;;14.10;81.40;;;;;;5018177;28;20022;-84
2023/04/23 02:04:14;;;;;;;13.13;10.73;;;14.00;81.40;;;;;;5018399;28;20038;-84
2023/04/23 02:06:41;;;;;;;13.48;10.63;;;14.00;81.40;;;;;;5017510;28;20021;-84
2023/04/23 02:09:07;;;;;;;13.77;11.30;;;14.10;81.50;;;;;;5018692;28;20042;-84
2023/04/23 02:11:32;;;;;;;13.20;10.98;;;14.00;81.40;;;;;;5019678;28;20045;-84
2023/04/23 02:13:58;;;;;;;13.18;10.63;;;14.00;81.40;;;;;;5013392;28;20021;-83
2023/04/23 02:16:25;;;;;;;14.02;10.63;;;14.10;81.50;;;;;;5013506;28;20050;-83
2023/04/23 02:18:51;;;;;;;13.02;10.38;;;14.10;81.50;;;;;;5012826;28;20091;-83
2023/04/23 02:21:16;;;;;;;13.50;10.35;;;14.00;81.40;;;;;;5000314;28;20489;-84
2023/04/23 02:23:42;;;;;;;12.75;10.27;;;14.00;81.40;;;;;;5017018;28;20087;-84
2023/04/23 02:26:07;;;;;;;13.00;10.48;;;14.00;81.40;;;;;;5017106;28;20029;-84
2023/04/23 02:28:33;;;;;;;13.93;10.93;;;14.00;81.40;;;;;;5020312;28;20026;-84
2023/04/23 02:30:58;;;;;;;12.82;10.43;;;14.00;81.40;;;;;;5020755;28;20456;-87
2023/04/23 02:33:24;;;;;;;14.10;10.65;;;14.00;81.40;;;;;;5019884;28;20017;-83
2023/04/23 02:35:50;;;;;;;13.50;11.02;;;14.00;81.40;;;;;;5019209;28;20018;-84
2023/04/23 02:38:15;;;;;;;13.27;10.82;;;14.00;81.40;;;;;;5020842;28;20029;-84
2023/04/23 02:40:42;;;;;;;13.15;10.73;;;14.00;81.40;;;;;;5022940;28;20160;-84
2023/04/23 02:43:08;;;;;;;12.90;10.40;;;14.10;81.50;;;;;;5024304;28;20043;-84
2023/04/23 02:45:33;;;;;;;14.30;10.93;;;14.00;81.40;;;;;;5037838;28;20021;-85
2023/04/23 02:47:59;;;;;;;12.50;10.10;;;14.00;81.40;;;;;;5057985;23;20037;-85
2023/04/23 02:50:25;;;;;;;13.35;10.52;;;14.10;81.50;;;;;;5014883;28;20109;-84
2023/04/23 02:52:50;;;;;;;12.70;10.00;;;14.00;81.40;;;;;;5015288;28;20113;-84
2023/04/23 02:55:16;;;;;;;13.20;10.48;;;14.00;81.40;;;;;;5015177;28;20474;-85
2023/04/23 02:57:42;;;;;;;13.32;10.68;;;14.00;81.40;;;;;;5014888;28;20025;-85
2023/04/23 03:00:08;;;;;;;13.68;10.60;;;14.10;81.50;;;;;;5015086;28;20108;-84
2023/04/23 03:02:34;;;;;;;13.10;10.52;;;14.00;81.40;;;;;;5014958;28;20109;-85
2023/04/23 03:04:59;;;;;;;13.00;10.10;;;14.00;81.40;;;;;;5015180;28;20071;-85
2023/04/23 03:07:25;;;;;;;12.93;10.50;;;14.00;81.40;;;;;;5032621;28;20021;-84
2023/04/23 03:09:50;;;;;;;12.82;10.32;;;14.10;81.50;;;;;;5015008;28;20028;-85
2023/04/23 03:12:17;;;;;;;12.98;10.00;;;14.00;81.40;;;;;;5014802;28;20025;-85
2023/04/23 03:14:43;;;;;;;13.48;10.40;;;14.00;81.40;;;;;;5014640;28;20021;-85
2023/04/23 03:17:08;;;;;;;13.35;10.63;;;14.00;81.40;;;;;;5014986;28;20104;-84
2023/04/23 03:19:34;;;;;;;12.32;10.27;;;14.00;81.40;;;;;;5014488;28;20045;-84
2023/04/23 03:22:02;;;;;;;12.55;10.07;;;14.00;81.40;;;;;;5032431;28;20017;-85
2023/04/23 03:24:30;;;;;;;13.15;10.98;;;14.00;81.40;;;;;;5014723;28;20018;-85
2023/04/23 03:26:56;;;;;;;13.23;9.82;;;14.00;81.40;;;;;;5014814;28;20036;-84
2023/04/23 03:29:22;;;;;;;12.55;10.18;;;14.00;81.50;;;;;;5014592;28;20034;-84
2023/04/23 03:31:48;;;;;;;13.05;10.55;;;14.00;81.40;;;;;;5014658;28;20030;-85
2023/04/23 03:34:13;;;;;;;12.73;10.02;;;14.00;81.40;;;;;;5014603;28;20025;-84
2023/04/23 03:36:39;;;;;;;13.38;10.15;;;14.00;81.40;;;;;;5014731;28;20026;-84
2023/04/23 03:39:06;;;;;;;12.65;10.45;;;14.00;81.40;;;;;;5014734;28;20017;-85
2023/04/23 03:41:31;;;;;;;12.55;10.27;;;14.10;81.50;;;;;;5014559;28;20021;-85
2023/04/23 03:43:56;;;;;;;12.63;9.60;;;14.00;81.40;;;;;;5014652;28;20028;-84
2023/04/23 03:46:22;;;;;;;12.50;9.70;;;14.00;81.40;;;;;;5014625;28;20026;-83
2023/04/23 03:48:47;;;;;;;13.63;11.02;;;14.00;81.40;;;;;;5000282;28;20034;-84
2023/04/23 03:51:13;;;;;;;13.55;10.77;;;14.00;81.40;;;;;;4995024;28;20026;-84
2023/04/23 03:53:38;;;;;;;12.68;10.27;;;14.00;81.50;;;;;;4995070;28;20022;-84
2023/04/23 03:56:04;;;;;;;12.57;9.93;;;14.00;81.50;;;;;;5012420;28;20031;-85
2023/04/23 03:58:30;;;;;;;13.38;10.45;;;14.00;81.40;;;;;;4994698;28;20028;-85
2023/04/23 04:00:56;;;;;;;13.40;10.20;;;14.00;81.50;;;;;;4994699;28;20021;-84
2023/04/23 04:03:21;;;;;;;12.75;10.20;;;14.00;81.40;;;;;;4994809;28;20437;-83
2023/04/23 04:05:47;;;;;;;13.88;10.68;;;14.10;81.50;;;;;;4994786;28;20033;-84
2023/04/23 04:08:12;;;;;;;12.60;9.88;;;14.00;81.40;;;;;;4994861;28;20018;-83
2023/04/23 04:10:39;;;;;;;13.20;11.02;;;14.00;81.50;;;;;;4994694;28;20494;-84
2023/04/23 04:13:05;;;;;;;12.52;10.02;;;14.00;81.50;;;;;;4994349;28;20025;-84
2023/04/23 04:15:31;;;;;;;11.80;9.55;;;14.00;81.50;;;;;;4994938;28;20037;-84
2023/04/23 04:17:58;;;;;;;13.05;10.68;;;14.00;81.50;;;;;;4994768;28;20034;-85
2023/04/23 04:20:24;;;;;;;11.82;9.30;;;14.00;81.50;;;;;;4994524;28;20486;-85
2023/04/23 04:22:49;;;;;;;12.13;9.60;;;14.00;81.50;;;;;;4994739;28;20024;-84
2023/04/23 04:25:15;;;;;;;12.38;9.50;;;14.00;81.50;;;;;;5012482;28;20018;-84
2023/04/23 04:27:40;;;;;;;12.50;9.73;;;14.00;81.50;;;;;;4994677;28;20101;-84
2023/04/23 04:30:07;;;;;;;13.75;10.15;;;14.00;81.50;;;;;;4995001;28;20374;-83
2023/04/23 04:32:33;;;;;;;12.00;9.75;;;14.00;81.50;;;;;;5015813;28;20029;-85
2023/04/23 04:34:58;;;;;;;12.52;9.95;;;14.10;82.10;;;;;;5015564;28;20029;-84
2023/04/23 04:37:29;;;;;;;12.30;9.45;;;14.00;81.50;;;;;;4996784;28;20033;-84
2023/04/23 04:39:54;;;;;;;12.82;9.98;;;14.00;81.50;;;;;;4994503;28;20029;-83
2023/04/23 04:42:20;;;;;;;11.98;9.52;;;14.00;81.50;;;;;;4990095;28;20033;-85
2023/04/23 04:44:46;;;;;;;13.63;10.30;;;14.00;81.50;;;;;;4991098;28;20645;-85
2023/04/23 04:47:15;;;;;;;13.93;10.55;;;14.00;81.50;;;;;;4995482;28;20037;-85
2023/04/23 04:49:40;;;;;;;13.98;10.52;;;14.00;81.50;;;;;;5014773;28;20095;-86
2023/04/23 04:52:08;;;;;;;16.77;10.63;;;14.00;81.90;;;;;;5014424;28;20710;-85
2023/04/23 04:55:10;;;;;;;14.57;10.30;;;15.00;82.10;;;;;;5014383;28;20075;-83
2023/04/23 04:57:42;;;;;;;18.98;10.50;;;14.10;81.30;;;;;;5026598;28;20485;-82
2023/04/23 05:00:28;;;;;;;;;;;14.10;81.40;;;;;;5034671;28;20048;-84
2023/04/23 05:03:49;;;;;;;15.23;10.30;;;14.10;81.50;;;;;;5034190;28;19900;-83
2023/04/23 05:09:57;;;;;;;17.00;10.90;;;14.20;82.00;;;;;;5205245;23;20056;-82
2023/04/23 05:12:44;;;;;;;;;;;;;;;;;;;;;
2023/04/23 05:15:12;;;;;;;15.93;11.30;;;14.90;83.10;;;;;;5051212;28;20036;-85
2023/04/23 05:22:53;;;;;;;22.60;15.90;;;14.30;83.70;;;;;;5114283;22;20060;-88
2023/04/23 05:25:22;;;;;;;26.48;16.33;;;14.40;83.50;;;;;;5015742;28;20024;-88
2023/04/23 05:28:24;;;;;;;61.35;27.45;;;14.50;83.40;;;;;;5015836;28;20045;-87
2023/04/23 05:59:52;;;;;;;47.00;26.52;;;14.90;80.50;;;;;;5030432;28;20041;-84
2023/04/23 06:02:19;;;;;;;50.25;26.95;;;14.90;80.60;;;;;;4999991;28;20042;-84
2023/04/23 06:04:44;;;;;;;46.65;26.98;;;14.90;80.70;;;;;;5015836;28;20124;-84
2023/04/23 06:07:11;;;;;;;49.35;27.15;;;14.80;80.80;;;;;;5015350;28;20041;-83
2023/04/23 06:09:36;;;;;;;39.80;25.30;;;14.90;80.90;;;;;;5015348;28;20033;-84
2023/04/23 06:12:02;;;;;;;43.22;24.58;;;14.80;80.90;;;;;;5015074;28;20021;-84
2023/04/23 06:14:28;;;;;;;46.92;25.02;;;14.80;81.00;;;;;;5015281;28;20508;-84
2023/04/23 06:16:54;;;;;;;40.65;26.55;;;14.80;81.10;;;;;;5015374;28;20509;-84
2023/04/23 06:19:19;;;;;;;38.22;24.52;;;14.80;81.20;;;;;;5014994;28;20017;-84
2023/04/23 06:21:45;;;;;;;42.42;25.10;;;14.80;81.20;;;;;;5015044;28;20021;-84
2023/04/23 06:24:10;;;;;;;38.47;24.05;;;14.80;81.20;;;;;;5015058;28;20440;-85
2023/04/23 06:26:36;;;;;;;37.65;25.35;;;14.80;81.30;;;;;;5015056;28;20029;-84
2023/04/23 06:29:01;;;;;;;40.95;24.88;;;14.70;81.20;;;;;;5015095;28;20029;-84
2023/04/23 06:31:27;;;;;;;37.30;23.95;;;14.70;81.10;;;;;;5014563;28;20493;-84
2023/04/23 06:33:53;;;;;;;36.78;23.42;;;14.80;81.10;;;;;;5015017;28;20049;-85
2023/04/23 06:36:18;;;;;;;34.67;23.58;;;14.80;81.10;;;;;;5014785;28;20164;-84
2023/04/23 06:38:44;;;;;;;36.33;24.00;;;14.80;81.00;;;;;;5014876;28;20087;-84
2023/04/23 06:41:10;;;;;;;36.70;23.45;;;14.80;80.90;;;;;;5014602;28;20025;-85
2023/04/23 06:43:35;;;;;;;34.67;23.23;;;14.80;80.80;;;;;;5014756;28;20448;-84
2023/04/23 06:46:01;;;;;;;35.40;23.17;;;14.80;80.60;;;;;;5014705;28;20021;-84
2023/04/23 06:48:26;;;;;;;33.92;22.92;;;14.80;80.40;;;;;;5014636;28;20029;-83
2023/04/23 06:50:52;;;;;;;34.47;22.70;;;14.80;80.50;;;;;;5014537;28;20025;-84
2023/04/23 06:53:18;;;;;;;34.67;23.50;;;14.80;80.30;;;;;;5014494;28;20026;-84
2023/04/23 06:55:44;;;;;;;32.00;22.60;;;14.90;80.30;;;;;;5014026;28;20032;-84
2023/04/23 06:58:10;;;;;;;32.35;21.65;;;14.90;80.30;;;;;;5014404;28;20049;-84
2023/04/23 07:00:35;;;;;;;36.97;23.02;;;14.90;80.30;;;;;;5014314;28;20079;-85
2023/04/23 07:03:01;;;;;;;32.90;22.25;;;14.90;80.50;;;;;;5014641;28;20031;-84
2023/04/23 07:05:27;;;;;;;32.28;21.67;;;14.90;80.20;;;;;;5031998;28;20026;-84
2023/04/23 07:07:52;;;;;;;33.72;21.65;;;14.90;80.40;;;;;;5014333;28;20033;-85
2023/04/23 07:10:18;;;;;;;32.85;22.48;;;15.00;80.40;;;;;;5013917;28;20094;-85
2023/04/23 07:12:44;;;;;;;31.25;20.95;;;14.90;80.30;;;;;;5014256;28;20127;-84
2023/04/23 07:15:10;;;;;;;30.70;21.33;;;15.00;80.30;;;;;;5014247;28;20380;-83
2023/04/23 07:17:35;;;;;;;32.88;20.85;;;15.00;80.20;;;;;;5014240;28;20022;-83
2023/04/23 07:20:05;;;;;;;30.35;20.27;;;15.00;80.20;;;;;;5014200;28;20478;-84
2023/04/23 07:22:31;;;;;;;30.58;20.83;;;15.00;80.20;;;;;;5014187;28;20022;-85
2023/04/23 07:24:57;;;;;;;30.58;20.80;;;15.00;80.10;;;;;;5014365;28;20537;-85
2023/04/23 07:27:23;;;;;;;30.65;21.35;;;15.00;80.10;;;;;;5014004;28;20060;-85
2023/04/23 07:29:48;;;;;;;32.92;20.75;;;15.10;80.00;;;;;;5014312;28;20026;-84
2023/04/23 07:32:14;;;;;;;29.15;20.73;;;15.10;80.00;;;;;;5014060;28;20030;-84
2023/04/23 07:34:39;;;;;;;26.75;19.50;;;15.10;79.80;;;;;;5014268;28;20029;-85
2023/04/23 07:37:05;;;;;;;30.23;19.85;;;15.10;79.80;;;;;;5014098;28;20026;-85
2023/04/23 07:39:31;;;;;;;27.17;18.95;;;15.20;79.80;;;;;;5013883;28;20024;-84
2023/04/23 07:41:57;;;;;;;28.20;18.92;;;15.20;79.70;;;;;;5013902;28;20033;-84
2023/04/23 07:44:23;;;;;;;29.23;19.58;;;15.20;79.60;;;;;;5014060;28;20021;-85
2023/04/23 07:46:49;;;;;;;29.10;19.33;;;15.20;79.50;;;;;;5031930;28;20355;-85
2023/04/23 07:49:15;;;;;;;27.67;18.52;;;15.20;79.50;;;;;;5013909;28;20059;-84
2023/04/23 07:51:41;;;;;;;30.10;19.83;;;15.20;79.40;;;;;;5013745;28;20505;-84
2023/04/23 07:54:07;;;;;;;26.00;18.83;;;15.20;79.40;;;;;;5013946;28;20018;-83
2023/04/23 07:56:33;;;;;;;27.63;18.92;;;15.30;79.30;;;;;;5013714;28;20029;-84
2023/04/23 07:58:59;;;;;;;30.70;19.27;;;15.30;79.30;;;;;;5013817;28;20039;-84
2023/04/23 08:01:25;;;;;;;27.05;18.05;;;15.30;79.30;;;;;;5013702;28;20021;-86
2023/04/23 08:03:51;;;;;;;25.92;17.92;;;15.30;79.10;;;;;;5013805;28;20028;-86
2023/04/23 08:06:17;;;;;;;25.60;18.27;;;15.30;79.00;;;;;;5016258;28;20108;-86
2023/04/23 08:08:43;;;;;;;30.25;18.90;;;15.30;78.90;;;;;;5017693;28;20029;-85
2023/04/23 08:11:09;;;;;;;26.67;18.08;;;15.30;78.90;;;;;;5017349;28;20026;-86
2023/04/23 08:13:35;;;;;;;25.38;18.05;;;15.30;78.80;;;;;;5017246;28;20778;-85
2023/04/23 08:16:01;;;;;;;25.83;17.80;;;15.40;78.90;;;;;;5017471;28;20017;-86
2023/04/23 08:18:26;;;;;;;26.08;18.23;;;15.40;78.90;;;;;;5017231;28;20349;-85
2023/04/23 08:20:53;;;;;;;24.02;17.23;;;15.40;78.80;;;;;;5017124;28;20502;-86
2023/04/23 08:23:19;;;;;;;23.52;16.10;;;15.40;78.80;;;;;;5017371;28;20068;-85
2023/04/23 08:25:44;;;;;;;24.25;16.70;;;15.40;78.70;;;;;;5017305;28;20432;-86
2023/04/23 08:28:10;;;;;;;27.08;17.58;;;15.40;78.70;;;;;;5017177;28;20029;-87
2023/04/23 08:30:35;;;;;;;21.88;16.35;;;15.50;78.70;;;;;;5017102;28;20520;-85
2023/04/23 08:33:01;;;;;;;24.73;16.35;;;15.50;78.70;;;;;;5017200;28;20025;-85
2023/04/23 08:35:27;;;;;;;25.42;17.17;;;15.50;78.70;;;;;;5017012;28;20033;-84
2023/04/23 08:37:52;;;;;;;22.05;15.95;;;15.50;78.60;;;;;;5017135;28;20025;-85
2023/04/23 08:40:18;;;;;;;21.02;15.80;;;15.50;78.60;;;;;;5016820;28;20025;-85
2023/04/23 08:42:50;;;;;;;22.92;15.88;;;15.50;78.60;;;;;;5017008;28;20020;-85
2023/04/23 08:45:15;;;;;;;22.48;16.13;;;15.50;78.50;;;;;;5016996;28;20029;-86
2023/04/23 08:50:16;;;;;;;23.48;15.98;;;15.60;78.40;;;;;;5053058;28;20045;-88
2023/04/23 08:52:51;;;;;;;23.42;15.85;;;15.60;78.40;;;;;;5037664;28;20107;-88
2023/04/23 08:55:18;;;;;;;22.80;15.93;;;15.60;78.40;;;;;;5017830;28;20060;-88
2023/04/23 08:57:45;;;;;;;22.10;15.80;;;15.60;78.40;;;;;;5017269;28;20091;-88
2023/04/23 09:00:12;;;;;;;19.98;15.55;;;15.60;78.50;;;;;;5034699;28;20109;-88
2023/04/23 09:02:43;;;;;;;18.17;13.35;;;15.60;78.50;;;;;;5017892;28;20485;-88
2023/04/23 09:05:09;;;;;;;19.67;13.98;;;15.50;78.60;;;;;;5018948;28;20056;-88
2023/04/23 09:07:35;;;;;;;20.23;14.18;;;15.50;78.70;;;;;;5018845;28;20108;-88
2023/04/23 09:10:02;;;;;;;17.20;13.00;;;15.50;78.80;;;;;;5017643;28;20115;-88
2023/04/23 09:12:28;;;;;;;18.17;12.73;;;15.40;78.90;;;;;;5018241;28;20040;-88
2023/04/23 09:14:54;;;;;;;19.27;13.07;;;15.40;79.00;;;;;;5018430;28;20025;-88
2023/04/23 09:17:21;;;;;;;17.70;13.43;;;15.40;79.10;;;;;;5016609;28;20018;-88
2023/04/23 09:19:47;;;;;;;17.73;13.05;;;15.30;79.10;;;;;;5018291;28;20371;-88
2023/04/23 09:22:13;;;;;;;18.13;13.40;;;15.30;79.20;;;;;;5017925;28;20053;-88
2023/04/23 09:24:42;;;;;;;18.85;13.38;;;15.30;79.30;;;;;;5035506;28;20033;-88
2023/04/23 09:27:08;;;;;;;17.83;12.82;;;15.30;79.40;;;;;;5017489;28;20563;-88
2023/04/23 09:29:34;;;;;;;20.15;13.80;;;15.30;79.40;;;;;;5016836;28;20132;-89
2023/04/23 09:32:09;;;;;;;20.05;14.18;;;15.30;79.50;;;;;;5017160;28;20095;-89
2023/04/23 09:34:39;;;;;;;17.38;12.60;;;15.30;79.50;;;;;;5018507;28;20115;-88
2023/04/23 09:37:06;;;;;;;18.05;13.10;;;15.30;79.60;;;;;;5017850;28;20018;-88
2023/04/23 09:39:33;;;;;;;17.17;12.55;;;15.30;79.60;;;;;;5017794;28;20029;-88
2023/04/23 09:42:07;;;;;;;17.77;12.68;;;15.20;79.50;;;;;;5017673;28;20024;-88
2023/04/23 09:44:33;;;;;;;17.40;12.93;;;15.20;79.50;;;;;;5017420;28;20033;-88
2023/04/23 09:47:10;;;;;;;17.27;12.98;;;15.30;79.60;;;;;;5018359;28;20032;-88
2023/04/23 09:49:49;;;;;;;16.70;11.98;;;15.30;79.50;;;;;;5019095;28;20398;-87
2023/04/23 09:52:15;;;;;;;15.85;11.90;;;15.30;79.30;;;;;;5019937;28;20095;-88
2023/04/23 09:54:41;;;;;;;15.95;11.75;;;15.40;79.20;;;;;;5020607;28;20521;-88
2023/04/23 09:57:07;;;;;;;16.38;12.05;;;15.40;79.10;;;;;;5019633;28;20029;-88
2023/04/23 09:59:37;;;;;;;17.23;12.52;;;15.50;79.00;;;;;;5019141;28;20114;-88
2023/04/23 10:02:05;;;;;;;17.20;12.60;;;15.50;79.00;;;;;;5018344;28;20482;-87
2023/04/23 10:04:30;;;;;;;15.63;11.50;;;15.50;78.90;;;;;;5018216;28;20155;-88
2023/04/23 10:07:02;;;;;;;15.85;11.85;;;15.50;78.80;;;;;;5018000;28;20489;-87
2023/04/23 10:09:28;;;;;;;16.30;11.98;;;15.50;78.90;;;;;;5018032;28;20112;-88
2023/04/23 10:11:55;;;;;;;17.20;11.68;;;15.50;78.70;;;;;;5016975;28;20034;-88
2023/04/23 10:14:21;;;;;;;16.50;12.15;;;15.60;78.80;;;;;;5017239;28;20093;-88
2023/04/23 10:16:50;;;;;;;15.93;11.55;;;15.60;78.70;;;;;;5016307;28;20121;-87
2023/04/23 10:19:22;;;;;;;16.10;12.05;;;15.60;78.80;;;;;;5015299;28;20496;-87
2023/04/23 10:22:04;;;;;;;15.48;11.32;;;15.60;78.80;;;;;;5016734;28;20084;-88
2023/04/23 10:24:36;;;;;;;15.57;11.25;;;15.50;78.80;;;;;;5015934;28;20580;-88
2023/04/23 10:27:03;;;;;;;16.42;12.20;;;15.50;78.90;;;;;;5016153;28;20532;-87
2023/04/23 10:29:31;;;;;;;14.68;11.00;;;15.60;79.00;;;;;;5015702;28;20028;-88
2023/04/23 10:32:03;;;;;;;15.85;11.35;;;15.50;79.00;;;;;;5015762;28;20549;-87
2023/04/23 10:34:30;;;;;;;14.20;10.20;;;15.50;79.00;;;;;;5014770;28;20029;-87
2023/04/23 10:36:58;;;;;;;14.13;10.32;;;15.50;79.10;;;;;;5015144;28;20029;-87
2023/04/23 10:39:27;;;;;;;13.50;9.98;;;15.50;79.10;;;;;;5015845;28;20112;-87
2023/04/23 10:41:53;;;;;;;16.20;10.80;;;15.50;79.20;;;;;;5015360;28;20021;-87
2023/04/23 10:44:22;;;;;;;14.20;10.73;;;15.40;79.20;;;;;;5015305;28;20111;-88
2023/04/23 10:46:53;;;;;;;14.25;10.77;;;15.40;79.30;;;;;;5015345;28;20061;-87
2023/04/23 10:49:20;;;;;;;14.70;10.13;;;15.40;79.30;;;;;;5014873;28;20519;-87
2023/04/23 10:51:49;;;;;;;13.35;10.13;;;15.40;79.40;;;;;;5032552;28;20040;-88
2023/04/23 10:54:17;;;;;;;14.05;10.25;;;15.40;79.50;;;;;;5014937;28;20044;-88
2023/04/23 10:56:44;;;;;;;13.57;9.40;;;15.40;79.50;;;;;;5015019;28;20018;-88
2023/04/23 10:59:20;;;;;;;14.85;10.10;;;15.40;79.40;;;;;;5014377;28;20021;-88
2023/04/23 11:01:49;;;;;;;13.82;10.00;;;15.40;79.40;;;;;;5014515;28;20017;-88
2023/04/23 11:04:27;;;;;;;12.23;9.18;;;15.40;79.30;;;;;;5014374;28;20030;-88
2023/04/23 11:06:57;;;;;;;12.68;9.30;;;15.50;79.30;;;;;;5031088;28;20029;-88
2023/04/23 11:09:43;;;;;;;12.90;9.27;;;15.50;79.10;;;;;;5014655;28;20076;-88
2023/04/23 11:12:23;;;;;;;12.50;9.20;;;15.50;79.10;;;;;;5030942;28;20029;-88
2023/04/23 11:14:50;;;;;;;11.70;8.85;;;15.50;79.10;;;;;;5014712;28;20021;-87
2023/04/23 11:17:31;;;;;;;12.18;9.13;;;15.50;79.10;;;;;;5014455;28;20037;-87
2023/04/23 11:20:05;;;;;;;12.73;9.55;;;15.50;79.20;;;;;;5014740;28;20120;-87
2023/04/23 11:22:36;;;;;;;13.02;9.27;;;15.40;79.20;;;;;;5014061;28;20025;-88
2023/04/23 11:25:03;;;;;;;13.65;9.30;;;15.40;79.80;;;;;;5014300;28;20026;-87
2023/04/23 11:27:30;;;;;;;13.43;10.07;;;15.40;79.30;;;;;;5014077;28;20119;-88
2023/04/23 11:29:56;;;;;;;12.57;9.18;;;15.40;79.40;;;;;;5014248;28;20025;-88
2023/04/23 11:32:22;;;;;;;12.73;9.00;;;15.40;79.40;;;;;;5031853;28;20037;-88
2023/04/23 11:34:49;;;;;;;14.63;9.40;;;15.40;79.40;;;;;;5014393;28;20520;-88
2023/04/23 11:37:17;;;;;;;11.30;8.20;;;15.40;79.40;;;;;;5014342;28;20030;-87
2023/04/23 11:39:50;;;;;;;10.88;7.55;;;15.50;79.30;;;;;;5014050;28;20386;-88
2023/04/23 11:42:18;;;;;;;12.07;8.55;;;15.50;79.20;;;;;;5017679;28;20026;-87
2023/04/23 11:44:45;;;;;;;10.95;8.10;;;15.50;79.10;;;;;;5017936;28;20398;-88
2023/04/23 11:47:13;;;;;;;11.57;8.07;;;15.50;79.10;;;;;;5017906;28;20032;-88
2023/04/23 11:49:41;;;;;;;11.60;8.73;;;15.50;79.00;;;;;;5018092;28;20170;-88
2023/04/23 11:52:07;;;;;;;9.88;7.47;;;15.50;79.10;;;;;;5017683;28;20021;-88
2023/04/23 11:54:33;;;;;;;10.77;7.68;;;15.50;79.00;;;;;;5017481;28;20036;-87
2023/04/23 11:56:59;;;;;;;11.45;7.90;;;15.50;79.10;;;;;;5017955;28;20039;-88
2023/04/23 11:59:25;;;;;;;10.35;7.93;;;15.50;79.20;;;;;;5034087;28;20048;-87
2023/04/23 12:01:55;;;;;;;10.68;7.82;;;15.50;79.20;;;;;;5017538;28;20029;-88
2023/04/23 12:04:23;;;;;;;10.90;7.95;;;15.50;79.30;;;;;;5017773;28;20205;-87
2023/04/23 12:06:50;;;;;;;11.40;8.00;;;15.40;79.30;;;;;;5033946;28;20040;-87
2023/04/23 12:09:18;;;;;;;10.65;7.28;;;15.40;79.40;;;;;;5017399;28;20026;-87
2023/04/23 12:11:44;;;;;;;12.18;7.68;;;15.40;79.50;;;;;;5017062;28;20026;-87
2023/04/23 12:14:11;;;;;;;10.35;7.53;;;15.40;79.60;;;;;;5017446;28;20029;-88
2023/04/23 12:16:38;;;;;;;10.60;7.43;;;15.30;79.70;;;;;;5021438;28;20021;-87
2023/04/23 12:19:17;;;;;;;10.27;7.45;;;15.30;80.30;;;;;;5022826;28;20017;-87
2023/04/23 12:21:57;;;;;;;11.90;8.30;;;15.30;79.90;;;;;;5023950;28;20049;-88
2023/04/23 12:24:25;;;;;;;10.17;7.50;;;15.30;80.00;;;;;;5021888;28;20041;-87
2023/04/23 12:26:57;;;;;;;11.38;8.00;;;15.30;80.00;;;;;;5022454;28;20033;-88
2023/04/23 12:29:23;;;;;;;11.23;8.07;;;15.30;80.10;;;;;;5021767;28;20029;-87
2023/04/23 12:31:51;;;;;;;11.38;7.70;;;15.20;80.10;;;;;;5021409;28;20057;-87
2023/04/23 12:34:17;;;;;;;11.40;8.00;;;15.20;80.20;;;;;;5021834;28;20049;-87
2023/04/23 12:36:49;;;;;;;10.75;7.72;;;15.20;80.20;;;;;;5021292;28;20482;-87
2023/04/23 12:39:19;;;;;;;10.95;7.75;;;15.20;80.30;;;;;;5021282;28;20028;-88
2023/04/23 12:41:45;;;;;;;10.88;7.78;;;15.20;80.30;;;;;;5020967;28;20029;-87
2023/04/23 12:44:10;;;;;;;10.88;7.45;;;15.20;80.30;;;;;;5020580;28;20072;-88
2023/04/23 12:46:36;;;;;;;10.77;7.50;;;15.20;80.30;;;;;;5017292;28;20057;-87
2023/04/23 12:49:01;;;;;;;11.15;7.72;;;15.20;80.30;;;;;;5018665;28;20060;-88
2023/04/23 12:51:27;;;;;;;10.82;7.63;;;15.20;80.30;;;;;;5019667;28;20061;-87
2023/04/23 12:53:53;;;;;;;11.68;7.90;;;15.20;80.30;;;;;;5037688;28;20021;-87
2023/04/23 12:56:19;;;;;;;11.32;7.38;;;15.20;80.20;;;;;;5019789;28;20028;-87
2023/04/23 12:58:44;;;;;;;10.30;7.28;;;15.20;80.30;;;;;;5019052;28;20112;-87
2023/04/23 13:01:11;;;;;;;10.18;7.03;;;15.20;80.30;;;;;;5018587;28;20117;-87
2023/04/23 13:03:37;;;;;;;10.77;7.50;;;15.20;80.20;;;;;;5035899;28;20053;-88
2023/04/23 13:06:02;;;;;;;10.88;7.45;;;15.20;80.20;;;;;;5019222;28;20360;-87
2023/04/23 13:08:28;;;;;;;9.27;6.63;;;15.20;80.20;;;;;;5021400;28;20021;-88
2023/04/23 13:10:53;;;;;;;10.82;7.20;;;15.20;80.20;;;;;;5020673;28;20030;-88
2023/04/23 13:13:19;;;;;;;10.05;7.15;;;15.20;80.20;;;;;;5020509;28;20134;-88